Terminal Aerodrome Forecast
Issued by NWS Cleveland, OH

Home | Current Version | Previous Version | Graphics & Text | Print | Product List | Glossary Off
Versions: 1 2 3 4 5 6 7 8 9 10 11 12 13 14 15 16 17 18 19 20

613
FTUS41 KCLE 041535 AAA
TAFYNG
TAF AMD
KYNG 041535Z 0416/0512 25010KT P6SM -SN BKN015 OVC025
     FM042000 28005KT P6SM OVC015=

USA.gov is the U.S. government's official web portal to all federal, state and local government web resources and services.